sensor_id;sensor_type;location;lat;lon;timestamp;pressure;altitude;pressure_sealevel;temperature;humidity
7836;BME280;3963;42.658;23.298;2023-04-30T00:01:25;59269.88;;;9.07;100.00
7836;BME280;3963;42.658;23.298;2023-04-30T00:03:52;59225.16;;;8.99;100.00
7836;BME280;3963;42.658;23.298;2023-04-30T00:06:18;59207.91;;;8.93;100.00
7836;BME280;3963;42.658;23.298;2023-04-30T00:08:46;59208.88;;;8.91;100.00
7836;BME280;3963;42.658;23.298;2023-04-30T00:11:12;59225.53;;;8.95;100.00
7836;BME280;3963;42.658;23.298;2023-04-30T00:13:41;59190.50;;;8.81;100.00
7836;BME280;3963;42.658;23.298;2023-04-30T00:16:08;59204.22;;;8.74;100.00
7836;BME280;3963;42.658;23.298;2023-04-30T00:18:35;59180.19;;;8.66;100.00
7836;BME280;3963;42.658;23.298;2023-04-30T00:21:03;59170.69;;;8.60;100.00
7836;BME280;3963;42.658;23.298;2023-04-30T00:23:30;59184.00;;;8.58;100.00
7836;BME280;3963;42.658;23.298;2023-04-30T00:25:56;59165.69;;;8.65;100.00
7836;BME280;3963;42.658;23.298;2023-04-30T00:28:23;59210.91;;;8.59;100.00
7836;BME280;3963;42.658;23.298;2023-04-30T00:30:51;59169.59;;;8.59;100.00
7836;BME280;3963;42.658;23.298;2023-04-30T00:33:18;59220.50;;;8.68;100.00
7836;BME280;3963;42.658;23.298;2023-04-30T00:35:45;59159.28;;;8.59;100.00
7836;BME280;3963;42.658;23.298;2023-04-30T00:38:12;59147.91;;;8.58;100.00
7836;BME280;3963;42.658;23.298;2023-04-30T00:40:39;59177.81;;;8.57;100.00
7836;BME280;3963;42.658;23.298;2023-04-30T00:43:08;59182.44;;;8.56;100.00
7836;BME280;3963;42.658;23.298;2023-04-30T00:45:34;59148.63;;;8.49;100.00
7836;BME280;3963;42.658;23.298;2023-04-30T00:48:03;59152.66;;;8.45;100.00
7836;BME280;3963;42.658;23.298;2023-04-30T00:50:30;59188.13;;;8.57;100.00
7836;BME280;3963;42.658;23.298;2023-04-30T00:52:57;59169.72;;;8.47;100.00
7836;BME280;3963;42.658;23.298;2023-04-30T00:55:25;59141.00;;;8.37;100.00
7836;BME280;3963;42.658;23.298;2023-04-30T00:57:52;59144.91;;;8.30;100.00
7836;BME280;3963;42.658;23.298;2023-04-30T01:00:19;59100.44;;;8.27;100.00
7836;BME280;3963;42.658;23.298;2023-04-30T01:02:47;59155.22;;;8.30;100.00
7836;BME280;3963;42.658;23.298;2023-04-30T01:05:16;59151.06;;;8.14;100.00
7836;BME280;3963;42.658;23.298;2023-04-30T01:07:44;59142.78;;;8.14;100.00
7836;BME280;3963;42.658;23.298;2023-04-30T01:10:12;59124.38;;;8.04;100.00
7836;BME280;3963;42.658;23.298;2023-04-30T01:12:45;59106.97;;;8.07;100.00
7836;BME280;3963;42.658;23.298;2023-04-30T01:15:20;59097.63;;;8.05;100.00
7836;BME280;3963;42.658;23.298;2023-04-30T01:17:54;59106.44;;;7.92;100.00
7836;BME280;3963;42.658;23.298;2023-04-30T01:20:25;59102.13;;;7.85;100.00
7836;BME280;3963;42.658;23.298;2023-04-30T01:22:57;59091.34;;;7.87;100.00
7836;BME280;3963;42.658;23.298;2023-04-30T01:25:50;59087.00;;;7.80;100.00
7836;BME280;3963;42.658;23.298;2023-04-30T01:28:21;59092.16;;;7.80;100.00
7836;BME280;3963;42.658;23.298;2023-04-30T01:30:49;59069.63;;;8.01;100.00
7836;BME280;3963;42.658;23.298;2023-04-30T01:33:17;59050.69;;;7.73;100.00
7836;BME280;3963;42.658;23.298;2023-04-30T01:38:55;58998.69;;;7.43;100.00
7836;BME280;3963;42.658;23.298;2023-04-30T01:41:32;59022.38;;;7.44;100.00
7836;BME280;3963;42.658;23.298;2023-04-30T01:44:11;59005.25;;;7.40;100.00
7836;BME280;3963;42.658;23.298;2023-04-30T01:46:46;59042.81;;;7.39;100.00
7836;BME280;3963;42.658;23.298;2023-04-30T01:49:26;59035.34;;;7.46;100.00
7836;BME280;3963;42.658;23.298;2023-04-30T01:52:02;59025.75;;;7.52;100.00
7836;BME280;3963;42.658;23.298;2023-04-30T01:54:35;59025.31;;;7.54;100.00
7836;BME280;3963;42.658;23.298;2023-04-30T01:57:05;59049.28;;;7.47;100.00
7836;BME280;3963;42.658;23.298;2023-04-30T01:59:35;59087.56;;;7.52;100.00
7836;BME280;3963;42.658;23.298;2023-04-30T02:02:05;59035.34;;;7.46;100.00
7836;BME280;3963;42.658;23.298;2023-04-30T02:04:32;59057.72;;;7.53;100.00
7836;BME280;3963;42.658;23.298;2023-04-30T02:06:59;59031.44;;;7.52;100.00
7836;BME280;3963;42.658;23.298;2023-04-30T02:09:25;59029.84;;;7.51;100.00
7836;BME280;3963;42.658;23.298;2023-04-30T02:11:52;59028.34;;;7.52;100.00
7836;BME280;3963;42.658;23.298;2023-04-30T02:14:19;59040.66;;;7.51;100.00
7836;BME280;3963;42.658;23.298;2023-04-30T02:16:48;59069.88;;;7.62;100.00
7836;BME280;3963;42.658;23.298;2023-04-30T02:19:15;59039.59;;;7.50;100.00
7836;BME280;3963;42.658;23.298;2023-04-30T02:21:42;59014.38;;;7.51;100.00
7836;BME280;3963;42.658;23.298;2023-04-30T02:24:09;59035.06;;;7.53;100.00
7836;BME280;3963;42.658;23.298;2023-04-30T02:26:36;59062.34;;;7.52;100.00
7836;BME280;3963;42.658;23.298;2023-04-30T02:29:02;59055.59;;;7.51;100.00
7836;BME280;3963;42.658;23.298;2023-04-30T02:31:30;59043.25;;;7.51;100.00
7836;BME280;3963;42.658;23.298;2023-04-30T02:33:58;58999.47;;;7.51;100.00
7836;BME280;3963;42.658;23.298;2023-04-30T02:36:25;59019.53;;;7.51;100.00
7836;BME280;3963;42.658;23.298;2023-04-30T02:38:52;59038.63;;;7.52;100.00
7836;BME280;3963;42.658;23.298;2023-04-30T02:41:19;59058.34;;;7.56;100.00
7836;BME280;3963;42.658;23.298;2023-04-30T02:43:46;59043.16;;;7.63;100.00
7836;BME280;3963;42.658;23.298;2023-04-30T02:46:13;59076.25;;;7.68;100.00
7836;BME280;3963;42.658;23.298;2023-04-30T02:48:39;59080.63;;;7.74;100.00
7836;BME280;3963;42.658;23.298;2023-04-30T02:51:08;59057.16;;;7.82;100.00
7836;BME280;3963;42.658;23.298;2023-04-30T02:53:34;59073.47;;;7.92;100.00
7836;BME280;3963;42.658;23.298;2023-04-30T02:56:01;59094.28;;;7.97;100.00
7836;BME280;3963;42.658;23.298;2023-04-30T02:58:28;59068.66;;;8.02;100.00
7836;BME280;3963;42.658;23.298;2023-04-30T03:00:55;59111.06;;;8.06;100.00
7836;BME280;3963;42.658;23.298;2023-04-30T03:03:22;59119.84;;;8.07;100.00
7836;BME280;3963;42.658;23.298;2023-04-30T03:05:48;59087.66;;;8.15;100.00
7836;BME280;3963;42.658;23.298;2023-04-30T03:08:16;59152.84;;;8.21;100.00
7836;BME280;3963;42.658;23.298;2023-04-30T03:10:43;59142.59;;;8.23;100.00
7836;BME280;3963;42.658;23.298;2023-04-30T03:13:10;59107.56;;;8.24;100.00
7836;BME280;3963;42.658;23.298;2023-04-30T03:15:37;59175.25;;;8.27;100.00
7836;BME280;3963;42.658;23.298;2023-04-30T03:18:04;59122.78;;;8.31;100.00
7836;BME280;3963;42.658;23.298;2023-04-30T03:20:31;59137.78;;;8.33;100.00
7836;BME280;3963;42.658;23.298;2023-04-30T03:22:58;59150.88;;;8.39;100.00
7836;BME280;3963;42.658;23.298;2023-04-30T03:25:26;59179.59;;;8.49;100.00
7836;BME280;3963;42.658;23.298;2023-04-30T03:27:53;59168.22;;;8.48;100.00
7836;BME280;3963;42.658;23.298;2023-04-30T03:30:20;59158.94;;;8.49;100.00
7836;BME280;3963;42.658;23.298;2023-04-30T03:32:46;59136.03;;;7.98;100.00
7836;BME280;3963;42.658;23.298;2023-04-30T03:35:13;59156.16;;;8.58;100.00
7836;BME280;3963;42.658;23.298;2023-04-30T03:37:42;59165.06;;;8.62;100.00
7836;BME280;3963;42.658;23.298;2023-04-30T03:40:10;59140.78;;;8.61;100.00
7836;BME280;3963;42.658;23.298;2023-04-30T03:42:40;59168.19;;;8.62;100.00
7836;BME280;3963;42.658;23.298;2023-04-30T03:45:08;59207.59;;;8.68;100.00
7836;BME280;3963;42.658;23.298;2023-04-30T03:47:35;59209.38;;;8.74;100.00
7836;BME280;3963;42.658;23.298;2023-04-30T03:50:03;59219.94;;;8.82;100.00
7836;BME280;3963;42.658;23.298;2023-04-30T03:52:30;59219.06;;;8.86;100.00
7836;BME280;3963;42.658;23.298;2023-04-30T03:54:58;59254.47;;;8.95;100.00
7836;BME280;3963;42.658;23.298;2023-04-30T03:57:24;59229.44;;;9.03;100.00
7836;BME280;3963;42.658;23.298;2023-04-30T03:59:53;59201.31;;;8.96;100.00
7836;BME280;3963;42.658;23.298;2023-04-30T04:02:20;59264.06;;;9.19;100.00
7836;BME280;3963;42.658;23.298;2023-04-30T04:04:47;59265.28;;;9.25;100.00
7836;BME280;3963;42.658;23.298;2023-04-30T04:07:14;59247.66;;;9.23;100.00
7836;BME280;3963;42.658;23.298;2023-04-30T04:09:41;59282.38;;;9.26;100.00
7836;BME280;3963;42.658;23.298;2023-04-30T04:12:08;59261.91;;;9.31;100.00
7836;BME280;3963;42.658;23.298;2023-04-30T04:14:35;59277.56;;;9.36;100.00
7836;BME280;3963;42.658;23.298;2023-04-30T04:17:03;59265.34;;;9.42;100.00
7836;BME280;3963;42.658;23.298;2023-04-30T04:19:30;59289.22;;;9.45;100.00
7836;BME280;3963;42.658;23.298;2023-04-30T04:21:57;59330.22;;;9.50;100.00
7836;BME280;3963;42.658;23.298;2023-04-30T04:24:24;59302.84;;;9.51;100.00
7836;BME280;3963;42.658;23.298;2023-04-30T04:26:51;59314.72;;;9.50;100.00
7836;BME280;3963;42.658;23.298;2023-04-30T04:29:18;59313.38;;;9.56;100.00
7836;BME280;3963;42.658;23.298;2023-04-30T04:31:45;59286.44;;;9.55;100.00
7836;BME280;3963;42.658;23.298;2023-04-30T04:34:15;59320.13;;;9.57;100.00
7836;BME280;3963;42.658;23.298;2023-04-30T04:36:44;59315.13;;;9.62;100.00
7836;BME280;3963;42.658;23.298;2023-04-30T04:39:11;59319.13;;;9.73;100.00
7836;BME280;3963;42.658;23.298;2023-04-30T04:41:38;59351.28;;;9.77;100.00
7836;BME280;3963;42.658;23.298;2023-04-30T04:44:05;59336.13;;;9.87;100.00
7836;BME280;3963;42.658;23.298;2023-04-30T04:46:35;59354.66;;;9.99;100.00
7836;BME280;3963;42.658;23.298;2023-04-30T04:49:04;59421.81;;;10.26;100.00
7836;BME280;3963;42.658;23.298;2023-04-30T04:51:32;59403.06;;;10.23;100.00
7836;BME280;3963;42.658;23.298;2023-04-30T04:53:59;59393.88;;;10.27;100.00
7836;BME280;3963;42.658;23.298;2023-04-30T04:56:26;59392.25;;;10.25;100.00
7836;BME280;3963;42.658;23.298;2023-04-30T04:58:53;59381.13;;;10.17;100.00
7836;BME280;3963;42.658;23.298;2023-04-30T05:01:20;59366.94;;;10.11;100.00
7836;BME280;3963;42.658;23.298;2023-04-30T05:03:46;59394.31;;;10.25;100.00
7836;BME280;3963;42.658;23.298;2023-04-30T05:06:13;59383.19;;;10.17;100.00
7836;BME280;3963;42.658;23.298;2023-04-30T05:08:42;59366.41;;;10.11;100.00
7836;BME280;3963;42.658;23.298;2023-04-30T05:11:09;59379.63;;;10.18;100.00
7836;BME280;3963;42.658;23.298;2023-04-30T05:13:35;59390.56;;;10.36;100.00
7836;BME280;3963;42.658;23.298;2023-04-30T05:16:03;59385.81;;;10.34;100.00
7836;BME280;3963;42.658;23.298;2023-04-30T05:18:30;59411.44;;;10.41;100.00
7836;BME280;3963;42.658;23.298;2023-04-30T05:20:56;59388.31;;;10.31;100.00
7836;BME280;3963;42.658;23.298;2023-04-30T05:23:24;59422.41;;;10.44;100.00
7836;BME280;3963;42.658;23.298;2023-04-30T05:25:52;59435.19;;;10.39;100.00
7836;BME280;3963;42.658;23.298;2023-04-30T05:28:19;59428.28;;;10.49;100.00
7836;BME280;3963;42.658;23.298;2023-04-30T05:30:47;59428.44;;;10.54;100.00
7836;BME280;3963;42.658;23.298;2023-04-30T05:33:14;59427.72;;;10.64;100.00
7836;BME280;3963;42.658;23.298;2023-04-30T05:35:41;59440.56;;;10.61;100.00
7836;BME280;3963;42.658;23.298;2023-04-30T05:38:07;59447.06;;;10.70;100.00
7836;BME280;3963;42.658;23.298;2023-04-30T05:40:34;59457.06;;;10.74;100.00
7836;BME280;3963;42.658;23.298;2023-04-30T05:43:02;59458.41;;;10.83;100.00
7836;BME280;3963;42.658;23.298;2023-04-30T05:45:29;59491.34;;;10.92;100.00
7836;BME280;3963;42.658;23.298;2023-04-30T05:47:56;59483.66;;;10.94;100.00
7836;BME280;3963;42.658;23.298;2023-04-30T05:50:24;59464.63;;;10.98;100.00
7836;BME280;3963;42.658;23.298;2023-04-30T05:52:51;59463.34;;;11.07;100.00
7836;BME280;3963;42.658;23.298;2023-04-30T05:55:18;59509.81;;;11.02;100.00
7836;BME280;3963;42.658;23.298;2023-04-30T05:57:44;59486.75;;;11.09;100.00
7836;BME280;3963;42.658;23.298;2023-04-30T06:00:14;59487.81;;;11.10;100.00
7836;BME280;3963;42.658;23.298;2023-04-30T06:02:41;59519.63;;;11.16;100.00
7836;BME280;3963;42.658;23.298;2023-04-30T06:05:08;59527.09;;;11.23;100.00
7836;BME280;3963;42.658;23.298;2023-04-30T06:07:35;59515.91;;;11.30;100.00
7836;BME280;3963;42.658;23.298;2023-04-30T06:10:02;59512.19;;;11.11;100.00
7836;BME280;3963;42.658;23.298;2023-04-30T06:12:29;59556.66;;;11.39;100.00
7836;BME280;3963;42.658;23.298;2023-04-30T06:14:57;59507.88;;;11.37;100.00
7836;BME280;3963;42.658;23.298;2023-04-30T06:17:26;59548.84;;;11.53;100.00
7836;BME280;3963;42.658;23.298;2023-04-30T06:19:52;59566.03;;;11.70;100.00
7836;BME280;3963;42.658;23.298;2023-04-30T06:22:19;59580.53;;;11.86;100.00
7836;BME280;3963;42.658;23.298;2023-04-30T06:24:46;59606.38;;;11.98;100.00
7836;BME280;3963;42.658;23.298;2023-04-30T06:27:13;59645.81;;;12.13;100.00
7836;BME280;3963;42.658;23.298;2023-04-30T06:29:40;59647.69;;;12.22;100.00
7836;BME280;3963;42.658;23.298;2023-04-30T06:32:06;59669.06;;;12.25;100.00
7836;BME280;3963;42.658;23.298;2023-04-30T06:34:35;59679.78;;;12.35;100.00
7836;BME280;3963;42.658;23.298;2023-04-30T06:37:02;59671.00;;;12.51;100.00
7836;BME280;3963;42.658;23.298;2023-04-30T06:39:28;59688.75;;;12.70;100.00
7836;BME280;3963;42.658;23.298;2023-04-30T06:41:55;59738.00;;;12.83;100.00
7836;BME280;3963;42.658;23.298;2023-04-30T06:44:22;59778.41;;;12.94;100.00
7836;BME280;3963;42.658;23.298;2023-04-30T06:46:49;59734.84;;;12.97;100.00
7836;BME280;3963;42.658;23.298;2023-04-30T06:49:17;59778.28;;;13.06;100.00
7836;BME280;3963;42.658;23.298;2023-04-30T06:51:45;59801.16;;;13.20;100.00
7836;BME280;3963;42.658;23.298;2023-04-30T06:54:12;59834.22;;;13.44;100.00
7836;BME280;3963;42.658;23.298;2023-04-30T06:56:40;59879.75;;;13.52;100.00
7836;BME280;3963;42.658;23.298;2023-04-30T06:59:08;59846.00;;;13.69;100.00
7836;BME280;3963;42.658;23.298;2023-04-30T07:01:35;59885.91;;;13.80;100.00
7836;BME280;3963;42.658;23.298;2023-04-30T07:04:01;59882.19;;;13.94;100.00
7836;BME280;3963;42.658;23.298;2023-04-30T07:06:28;59912.31;;;14.22;100.00
7836;BME280;3963;42.658;23.298;2023-04-30T07:08:59;59981.88;;;14.46;100.00
7836;BME280;3963;42.658;23.298;2023-04-30T07:11:25;60033.09;;;14.64;100.00
7836;BME280;3963;42.658;23.298;2023-04-30T07:13:52;59952.53;;;14.40;100.00
7836;BME280;3963;42.658;23.298;2023-04-30T07:16:19;59949.94;;;14.25;100.00
7836;BME280;3963;42.658;23.298;2023-04-30T07:18:46;59900.16;;;14.01;100.00
7836;BME280;3963;42.658;23.298;2023-04-30T07:21:13;59912.59;;;14.15;100.00
7836;BME280;3963;42.658;23.298;2023-04-30T07:23:40;59921.50;;;14.01;100.00
7836;BME280;3963;42.658;23.298;2023-04-30T07:26:10;59913.41;;;14.08;100.00
7836;BME280;3963;42.658;23.298;2023-04-30T07:28:36;59933.16;;;14.07;100.00
7836;BME280;3963;42.658;23.298;2023-04-30T07:31:04;59950.63;;;14.31;100.00
7836;BME280;3963;42.658;23.298;2023-04-30T07:33:31;59965.75;;;14.30;100.00
7836;BME280;3963;42.658;23.298;2023-04-30T07:35:58;59931.69;;;14.40;100.00
7836;BME280;3963;42.658;23.298;2023-04-30T07:38:25;59969.06;;;14.36;100.00
7836;BME280;3963;42.658;23.298;2023-04-30T07:40:52;59951.44;;;14.54;100.00
7836;BME280;3963;42.658;23.298;2023-04-30T07:43:23;59946.50;;;14.32;100.00
7836;BME280;3963;42.658;23.298;2023-04-30T07:45:50;59954.97;;;14.35;100.00
7836;BME280;3963;42.658;23.298;2023-04-30T07:48:18;59964.66;;;14.44;100.00
7836;BME280;3963;42.658;23.298;2023-04-30T07:50:46;59940.59;;;14.41;100.00
7836;BME280;3963;42.658;23.298;2023-04-30T07:53:13;59966.56;;;14.38;100.00
7836;BME280;3963;42.658;23.298;2023-04-30T07:55:40;60000.03;;;14.58;100.00
7836;BME280;3963;42.658;23.298;2023-04-30T07:58:07;60000.09;;;14.75;100.00
7836;BME280;3963;42.658;23.298;2023-04-30T08:00:36;59997.56;;;14.77;100.00
7836;BME280;3963;42.658;23.298;2023-04-30T08:03:02;60033.34;;;14.86;100.00
7836;BME280;3963;42.658;23.298;2023-04-30T08:05:29;60051.78;;;15.09;100.00
7836;BME280;3963;42.658;23.298;2023-04-30T08:07:56;60053.44;;;15.10;100.00
7836;BME280;3963;42.658;23.298;2023-04-30T08:10:23;60083.91;;;15.17;100.00
7836;BME280;3963;42.658;23.298;2023-04-30T08:12:50;60054.09;;;15.30;100.00
7836;BME280;3963;42.658;23.298;2023-04-30T08:15:17;60086.56;;;15.34;100.00
7836;BME280;3963;42.658;23.298;2023-04-30T08:17:50;60061.34;;;15.13;100.00
7836;BME280;3963;42.658;23.298;2023-04-30T08:20:17;60067.78;;;15.19;100.00
7836;BME280;3963;42.658;23.298;2023-04-30T08:22:45;60006.28;;;14.73;100.00
7836;BME280;3963;42.658;23.298;2023-04-30T08:25:12;60016.06;;;14.85;100.00
7836;BME280;3963;42.658;23.298;2023-04-30T08:27:39;60044.63;;;14.97;100.00
7836;BME280;3963;42.658;23.298;2023-04-30T08:30:07;60049.03;;;15.04;100.00
7836;BME280;3963;42.658;23.298;2023-04-30T08:32:35;60086.41;;;15.14;100.00
7836;BME280;3963;42.658;23.298;2023-04-30T08:35:03;60070.16;;;15.11;100.00
7836;BME280;3963;42.658;23.298;2023-04-30T08:37:30;60089.34;;;15.39;100.00
7836;BME280;3963;42.658;23.298;2023-04-30T08:39:58;60177.25;;;15.75;99.26
7836;BME280;3963;42.658;23.298;2023-04-30T08:42:30;60182.94;;;16.04;98.19
7836;BME280;3963;42.658;23.298;2023-04-30T08:44:58;60210.56;;;16.33;95.17
7836;BME280;3963;42.658;23.298;2023-04-30T08:47:26;60298.09;;;16.85;94.59
7836;BME280;3963;42.658;23.298;2023-04-30T08:49:53;60509.31;;;18.29;86.01
7836;BME280;3963;42.658;23.298;2023-04-30T08:52:22;60531.91;;;18.45;81.15
7836;BME280;3963;42.658;23.298;2023-04-30T08:54:51;60653.16;;;19.53;74.07
7836;BME280;3963;42.658;23.298;2023-04-30T08:57:20;60826.78;;;20.48;66.46
7836;BME280;3963;42.658;23.298;2023-04-30T08:59:47;60887.66;;;21.05;57.73
7836;BME280;3963;42.658;23.298;2023-04-30T09:02:14;60871.41;;;21.07;54.07
7836;BME280;3963;42.658;23.298;2023-04-30T09:04:40;60841.13;;;20.83;54.83
7836;BME280;3963;42.658;23.298;2023-04-30T09:07:08;60936.69;;;21.35;53.64
7836;BME280;3963;42.658;23.298;2023-04-30T09:09:38;61098.03;;;22.26;51.23
7836;BME280;3963;42.658;23.298;2023-04-30T09:12:12;61241.94;;;23.40;46.91
7836;BME280;3963;42.658;23.298;2023-04-30T09:14:40;61291.78;;;23.59;45.47
7836;BME280;3963;42.658;23.298;2023-04-30T09:17:07;61107.34;;;22.52;46.70
7836;BME280;3963;42.658;23.298;2023-04-30T09:19:34;61033.03;;;21.78;49.11
7836;BME280;3963;42.658;23.298;2023-04-30T09:22:25;61028.47;;;21.98;48.48
7836;BME280;3963;42.658;23.298;2023-04-30T09:24:53;61114.84;;;22.39;47.91
7836;BME280;3963;42.658;23.298;2023-04-30T09:27:21;61153.19;;;22.80;46.99
7836;BME280;3963;42.658;23.298;2023-04-30T09:29:48;61183.72;;;22.76;47.34
7836;BME280;3963;42.658;23.298;2023-04-30T09:32:15;61139.75;;;22.72;47.62
7836;BME280;3963;42.658;23.298;2023-04-30T09:34:41;61179.38;;;23.04;45.71
7836;BME280;3963;42.658;23.298;2023-04-30T09:37:09;61153.41;;;22.55;46.44
7836;BME280;3963;42.658;23.298;2023-04-30T09:39:46;61197.53;;;22.94;45.19
7836;BME280;3963;42.658;23.298;2023-04-30T09:42:15;61026.94;;;21.85;47.91
7836;BME280;3963;42.658;23.298;2023-04-30T09:44:42;60876.59;;;20.58;51.67
7836;BME280;3963;42.658;23.298;2023-04-30T09:47:10;60849.75;;;20.42;52.78
7836;BME280;3963;42.658;23.298;2023-04-30T09:49:40;60960.41;;;21.21;50.87
7836;BME280;3963;42.658;23.298;2023-04-30T09:52:07;61020.13;;;21.86;48.82
7836;BME280;3963;42.658;23.298;2023-04-30T09:54:35;61058.34;;;22.24;48.17
7836;BME280;3963;42.658;23.298;2023-04-30T09:57:02;61219.44;;;23.17;46.25
7836;BME280;3963;42.658;23.298;2023-04-30T09:59:32;60937.34;;;21.24;48.64
7836;BME280;3963;42.658;23.298;2023-04-30T10:02:00;60827.53;;;20.71;50.24
7836;BME280;3963;42.658;23.298;2023-04-30T10:04:29;60769.44;;;20.02;53.26
7836;BME280;3963;42.658;23.298;2023-04-30T10:07:00;60972.19;;;21.41;48.94
7836;BME280;3963;42.658;23.298;2023-04-30T10:09:32;61065.56;;;22.18;47.60
7836;BME280;3963;42.658;23.298;2023-04-30T10:12:02;61113.63;;;22.50;45.84
7836;BME280;3963;42.658;23.298;2023-04-30T10:14:35;61131.91;;;22.60;44.54
7836;BME280;3963;42.658;23.298;2023-04-30T10:17:05;61056.03;;;22.02;47.03
7836;BME280;3963;42.658;23.298;2023-04-30T10:19:38;60992.19;;;21.40;48.83
7836;BME280;3963;42.658;23.298;2023-04-30T10:22:06;60760.75;;;19.94;52.36
7836;BME280;3963;42.658;23.298;2023-04-30T10:24:33;60760.41;;;19.84;53.52
7836;BME280;3963;42.658;23.298;2023-04-30T10:27:00;60704.88;;;19.59;55.42
7836;BME280;3963;42.658;23.298;2023-04-30T10:29:27;60636.50;;;19.10;60.01
7836;BME280;3963;42.658;23.298;2023-04-30T10:31:56;60379.59;;;17.12;68.70
7836;BME280;3963;42.658;23.298;2023-04-30T10:34:30;60252.22;;;15.98;100.00
7836;BME280;3963;42.658;23.298;2023-04-30T10:37:05;60051.53;;;14.69;100.00
7836;BME280;3963;42.658;23.298;2023-04-30T10:39:34;59967.38;;;14.03;100.00
7836;BME280;3963;42.658;23.298;2023-04-30T10:42:02;59878.78;;;13.39;100.00
7836;BME280;3963;42.658;23.298;2023-04-30T10:44:31;59849.09;;;13.38;100.00
7836;BME280;3963;42.658;23.298;2023-04-30T10:47:01;59908.91;;;13.67;100.00
7836;BME280;3963;42.658;23.298;2023-04-30T10:49:29;60059.59;;;14.77;100.00
7836;BME280;3963;42.658;23.298;2023-04-30T10:51:59;60236.13;;;16.00;100.00
7836;BME280;3963;42.658;23.298;2023-04-30T10:54:28;60275.16;;;16.42;100.00
7836;BME280;3963;42.658;23.298;2023-04-30T10:57:08;60336.78;;;16.85;100.00
7836;BME280;3963;42.658;23.298;2023-04-30T10:59:37;60295.47;;;16.85;100.00
7836;BME280;3963;42.658;23.298;2023-04-30T11:02:09;60315.84;;;16.85;100.00
7836;BME280;3963;42.658;23.298;2023-04-30T11:07:37;60394.00;;;17.36;100.00
7836;BME280;3963;42.658;23.298;2023-04-30T11:10:12;60529.50;;;18.20;100.00
7836;BME280;3963;42.658;23.298;2023-04-30T11:12:40;60595.94;;;18.60;100.00
7836;BME280;3963;42.658;23.298;2023-04-30T11:15:12;60569.75;;;18.77;100.00
7836;BME280;3963;42.658;23.298;2023-04-30T11:17:42;60621.97;;;18.70;100.00
7836;BME280;3963;42.658;23.298;2023-04-30T11:20:11;60571.75;;;18.74;99.26
7836;BME280;3963;42.658;23.298;2023-04-30T11:22:38;60613.41;;;19.11;100.00
7836;BME280;3963;42.658;23.298;2023-04-30T11:25:07;60596.44;;;18.90;93.51
7836;BME280;3963;42.658;23.298;2023-04-30T11:27:36;60598.88;;;18.85;100.00
7836;BME280;3963;42.658;23.298;2023-04-30T11:30:09;60533.53;;;18.32;99.80
7836;BME280;3963;42.658;23.298;2023-04-30T11:32:37;60511.31;;;18.25;99.93
7836;BME280;3963;42.658;23.298;2023-04-30T11:35:08;60468.34;;;17.95;92.66
7836;BME280;3963;42.658;23.298;2023-04-30T11:37:38;60471.41;;;18.08;94.37
7836;BME280;3963;42.658;23.298;2023-04-30T11:40:07;60514.41;;;18.23;93.45
7836;BME280;3963;42.658;23.298;2023-04-30T11:42:36;60536.63;;;18.30;84.36
7836;BME280;3963;42.658;23.298;2023-04-30T11:45:05;60500.50;;;18.15;83.64
7836;BME280;3963;42.658;23.298;2023-04-30T11:47:43;60498.88;;;18.14;83.47
7836;BME280;3963;42.658;23.298;2023-04-30T11:50:12;60512.94;;;18.27;82.97
7836;BME280;3963;42.658;23.298;2023-04-30T11:52:40;60540.66;;;18.55;80.03
7836;BME280;3963;42.658;23.298;2023-04-30T11:55:12;60507.38;;;18.02;83.37
7836;BME280;3963;42.658;23.298;2023-04-30T11:57:42;60485.28;;;18.31;85.58
7836;BME280;3963;42.658;23.298;2023-04-30T12:00:13;60570.41;;;18.66;82.26
7836;BME280;3963;42.658;23.298;2023-04-30T12:02:41;60582.50;;;18.82;77.49
7836;BME280;3963;42.658;23.298;2023-04-30T12:05:19;60665.72;;;19.06;74.96
7836;BME280;3963;42.658;23.298;2023-04-30T12:07:47;60681.56;;;19.23;72.00
7836;BME280;3963;42.658;23.298;2023-04-30T12:10:15;60702.63;;;19.55;70.69
7836;BME280;3963;42.658;23.298;2023-04-30T12:12:45;60670.41;;;19.34;72.69
7836;BME280;3963;42.658;23.298;2023-04-30T12:15:14;60558.97;;;18.85;76.54
7836;BME280;3963;42.658;23.298;2023-04-30T12:17:42;60577.75;;;18.65;77.38
7836;BME280;3963;42.658;23.298;2023-04-30T12:20:10;60564.09;;;18.50;79.91
7836;BME280;3963;42.658;23.298;2023-04-30T12:22:38;60522.97;;;18.29;81.06
7836;BME280;3963;42.658;23.298;2023-04-30T12:25:07;60509.34;;;18.14;80.46
7836;BME280;3963;42.658;23.298;2023-04-30T12:27:36;60459.84;;;17.92;83.06
7836;BME280;3963;42.658;23.298;2023-04-30T12:30:04;60396.19;;;17.38;80.61
7836;BME280;3963;42.658;23.298;2023-04-30T12:32:37;60344.91;;;16.92;84.78
7836;BME280;3963;42.658;23.298;2023-04-30T12:35:05;60270.25;;;16.52;91.49
7836;BME280;3963;42.658;23.298;2023-04-30T12:37:32;60282.28;;;16.36;88.14
7836;BME280;3963;42.658;23.298;2023-04-30T12:40:00;60237.25;;;16.19;89.34
7836;BME280;3963;42.658;23.298;2023-04-30T12:42:31;60202.50;;;15.96;93.05
7836;BME280;3963;42.658;23.298;2023-04-30T12:44:59;60214.38;;;16.07;96.46
7836;BME280;3963;42.658;23.298;2023-04-30T12:47:26;60204.41;;;15.90;97.48
7836;BME280;3963;42.658;23.298;2023-04-30T12:49:54;60190.09;;;15.84;96.34
7836;BME280;3963;42.658;23.298;2023-04-30T12:52:23;60199.81;;;15.93;97.67
7836;BME280;3963;42.658;23.298;2023-04-30T12:54:50;60230.94;;;16.18;97.51
7836;BME280;3963;42.658;23.298;2023-04-30T12:57:20;60216.72;;;16.14;97.48
7836;BME280;3963;42.658;23.298;2023-04-30T12:59:57;60219.41;;;16.17;92.45
7836;BME280;3963;42.658;23.298;2023-04-30T13:02:26;60238.50;;;16.39;90.11
7836;BME280;3963;42.658;23.298;2023-04-30T13:04:53;60236.53;;;16.13;90.85
7836;BME280;3963;42.658;23.298;2023-04-30T13:07:21;60249.69;;;16.16;90.46
7836;BME280;3963;42.658;23.298;2023-04-30T13:09:48;60249.88;;;16.21;89.42
7836;BME280;3963;42.658;23.298;2023-04-30T13:12:15;60236.53;;;16.13;88.20
7836;BME280;3963;42.658;23.298;2023-04-30T13:14:43;60229.25;;;16.14;90.93
7836;BME280;3963;42.658;23.298;2023-04-30T13:17:10;60263.66;;;16.26;89.10
7836;BME280;3963;42.658;23.298;2023-04-30T13:19:38;60219.50;;;16.19;89.64